Kaio Maru — JD2067 — position and weather

sailwx.info

Track history (hours):
 
Tides and Currents Weather Stations Pressure Air Temp Water Temp Dewpoint Dewpoint Depression Visibility Wind Speed Wind Dir Waves Ship Positions

Kaio Maru

Last reported at 2015-Feb-01 08:33 UTC. Time now 2015-Feb-01 08:48 UTC.
Position N 35°38' E 139°46'.

Length 36 m; draft 3.2 m.

Type: Tug. MMSI: 431001455.

Date/timePositionNaut miles runAvg speedWind from/ knotsBaromVisibWave heightAir tempDewpointWater temp
2015-Feb-01 08:33N 35°38' E 139°46'0 0.0
2015-Feb-01 07:33N 35°38' E 139°46'0 0.0
2015-Feb-01 06:33N 35°38' E 139°46'0 0.0
2015-Feb-01 05:27N 35°38' E 139°46'0 0.0
2015-Feb-01 04:33N 35°38' E 139°46'0 0.0
2015-Feb-01 03:25N 35°38' E 139°46'0 0.0
2015-Feb-01 02:17N 35°38' E 139°46'0 0.0
2015-Feb-01 00:04N 35°38' E 139°46'0 0.0
2015-Jan-31 23:33N 35°38' E 139°46'0 0.0
2015-Jan-31 21:14N 35°38' E 139°46'0 0.0
2015-Jan-31 18:26N 35°38' E 139°46'0 0.0
2015-Jan-31 17:19N 35°38' E 139°46'0 0.0
2015-Jan-31 16:33N 35°38' E 139°46'0 0.0
2015-Jan-31 14:17N 35°38' E 139°46'0 0.0
2015-Jan-31 10:06N 35°38' E 139°46'5 3.1
2015-Jan-31 08:33N 35°34' E 139°49'5 0.9
2015-Jan-31 03:15N 35°38' E 139°45'0 0.0
2015-Jan-31 02:17N 35°38' E 139°45'0 0.0
2015-Jan-31 01:10N 35°38' E 139°45'0 0.0
2015-Jan-30 23:33N 35°38' E 139°45'3 1.9
2015-Jan-30 22:13N 35°36' E 139°47'3 4.5
2015-Jan-30 21:33N 35°34' E 139°49'4 3.5
2015-Jan-30 20:33N 35°37' E 139°46'2 0.9
2015-Jan-30 18:29N 35°38' E 139°45'3 0.3
2015-Jan-30 10:25N 35°36' E 139°47'1 1.0
2015-Jan-30 09:33N 35°36' E 139°46'2 1.4
2015-Jan-30 08:11N 35°38' E 139°45'0 0.3
2015-Jan-30 07:32N 35°38' E 139°46'2 2.0
2015-Jan-30 06:33N 35°36' E 139°47'2 0.5
2015-Jan-30 02:19N 35°38' E 139°45'0 0.3
2015-Jan-30 01:30N 35°38' E 139°46'2 2.0
2015-Jan-30 00:30N 35°36' E 139°46'3 3.4
2015-Jan-29 23:32N 35°34' E 139°50'3 3.2
2015-Jan-29 22:32N 35°36' E 139°47'1 1.2
2015-Jan-29 21:33N 35°35' E 139°47'3 0.3
2015-Jan-29 10:27N 35°38' E 139°45'3 3.5
2015-Jan-29 09:30N 35°35' E 139°47'1 1.2
2015-Jan-29 08:33N 35°34' E 139°48'5 3.9
2015-Jan-29 07:22N 35°38' E 139°45'0 0.0
2015-Jan-28 21:30N 35°38' E 139°45'0 0.0
2015-Jan-28 19:29N 35°38' E 139°45'0 0.0
2015-Jan-28 15:21N 35°38' E 139°45'0 0.0
2015-Jan-27 22:21N 35°38' E 139°45'0 0.0
2015-Jan-27 21:20N 35°38' E 139°45'0 0.0
2015-Jan-27 20:30N 35°38' E 139°45'0 0.0
2015-Jan-27 19:32N 35°38' E 139°45'0 0.0
2015-Jan-27 18:32N 35°38' E 139°45'0 0.0
2015-Jan-27 17:15N 35°38' E 139°45'0 0.0
2015-Jan-27 16:07N 35°38' E 139°45'0 0.0
2015-Jan-27 15:20N 35°38' E 139°45'0 0.0
2015-Jan-27 12:25N 35°38' E 139°45'0 0.0
2015-Jan-27 10:26N 35°38' E 139°45'0 0.0
2015-Jan-27 05:33N 35°38' E 139°45'0 0.0
2015-Jan-26 22:17N 35°38' E 139°45'0 0.0
2015-Jan-26 21:32N 35°38' E 139°45'0 0.0
2015-Jan-26 20:29N 35°38' E 139°45'0 0.0
2015-Jan-26 19:19N 35°38' E 139°45'2 2.9
2015-Jan-26 18:33N 35°36' E 139°47'2 1.6
2015-Jan-26 17:08N 35°38' E 139°45'0 0.0
2015-Jan-26 16:33N 35°38' E 139°45'0 0.0
2015-Jan-26 15:31N 35°38' E 139°45'0 0.0
2015-Jan-26 14:04N 35°38' E 139°45'2 3.8
2015-Jan-26 13:29N 35°36' E 139°46'2 1.9
2015-Jan-26 12:33N 35°35' E 139°48'1 0.2
2015-Jan-26 09:28N 35°35' E 139°47'2 2.1
2015-Jan-26 08:33N 35°37' E 139°46'2 0.1
2015-Jan-25 13:18N 35°38' E 139°45'0 0.0
2015-Jan-25 12:06N 35°38' E 139°45'0 0.1
2015-Jan-25 09:22N 35°38' E 139°46'1 1.5
2015-Jan-25 08:30N 35°37' E 139°46'1 0.8
2015-Jan-25 07:13N 35°38' E 139°46'1 1.7
2015-Jan-25 06:33N 35°37' E 139°46'2 1.2
2015-Jan-25 05:17N 35°38' E 139°45'0 0.0
2015-Jan-25 04:29N 35°38' E 139°45'0 0.0
2015-Jan-25 01:29N 35°38' E 139°45'0 0.0
2015-Jan-25 00:13N 35°38' E 139°45'0 0.0
2015-Jan-24 23:21N 35°38' E 139°45'0 0.0
2015-Jan-24 22:20N 35°38' E 139°45'0 0.0
2015-Jan-24 19:21N 35°38' E 139°45'0 0.0
2015-Jan-24 16:28N 35°38' E 139°45'0 0.0
2015-Jan-24 15:20N 35°38' E 139°45'0 0.0
2015-Jan-24 12:07N 35°38' E 139°45'0 0.0
2015-Jan-24 10:13N 35°38' E 139°45'0 0.0
2015-Jan-24 09:27N 35°38' E 139°45'1 0.2
2015-Jan-24 05:33N 35°38' E 139°46'1 0.6
2015-Jan-24 04:22N 35°38' E 139°45'0 0.0
2015-Jan-24 03:16N 35°38' E 139°45'0 0.0
2015-Jan-24 02:28N 35°38' E 139°45'0 0.0
2015-Jan-24 01:07N 35°38' E 139°45'0 0.0
2015-Jan-23 23:29N 35°38' E 139°45'0 0.0
2015-Jan-23 22:30N 35°38' E 139°45'0 0.0
2015-Jan-23 20:30N 35°38' E 139°45'0 0.0
2015-Jan-23 19:22N 35°38' E 139°45'2 0.3
2015-Jan-23 11:33N 35°36' E 139°47'2 1.7
2015-Jan-23 10:05N 35°38' E 139°45'0 0.0
2015-Jan-23 08:13N 35°38' E 139°45'0 0.0
2015-Jan-23 03:07N 35°38' E 139°45'0 0.0
2015-Jan-23 02:20N 35°38' E 139°45'2 1.3
2015-Jan-23 00:28N 35°36' E 139°46'1 1.6
2015-Jan-22 23:33N 35°35' E 139°48'2 0.2
2015-Jan-22 10:33N 35°37' E 139°46'2 2.2
2015-Jan-22 09:32N 35°35' E 139°48'1 0.6
2015-Jan-22 08:33N 35°35' E 139°48'  
Track history (hours):
 
Tides and Currents Weather Stations Pressure Air Temp Water Temp Dewpoint Dewpoint Depression Visibility Wind Speed Wind Dir Waves Ship Positions

Kaio Maru

Last reported at 2015-Feb-01 08:33 UTC. Time now 2015-Feb-01 08:48 UTC.
Position N 35°38' E 139°46'.

Length 36 m; draft 3.2 m.

Type: Tug. MMSI: 431001455.

Date/timePositionNaut miles runAvg speedWind from/ knotsBaromVisibWave heightAir tempDewpointWater temp
2015-Feb-01 08:33N 35°38' E 139°46'0 0.0
2015-Feb-01 07:33N 35°38' E 139°46'0 0.0
2015-Feb-01 06:33N 35°38' E 139°46'0 0.0
2015-Feb-01 05:27N 35°38' E 139°46'0 0.0
2015-Feb-01 04:33N 35°38' E 139°46'0 0.0
2015-Feb-01 03:25N 35°38' E 139°46'0 0.0
2015-Feb-01 02:17N 35°38' E 139°46'0 0.0
2015-Feb-01 00:04N 35°38' E 139°46'0 0.0
2015-Jan-31 23:33N 35°38' E 139°46'0 0.0
2015-Jan-31 21:14N 35°38' E 139°46'0 0.0
2015-Jan-31 18:26N 35°38' E 139°46'0 0.0
2015-Jan-31 17:19N 35°38' E 139°46'0 0.0
2015-Jan-31 16:33N 35°38' E 139°46'0 0.0
2015-Jan-31 14:17N 35°38' E 139°46'0 0.0
2015-Jan-31 10:06N 35°38' E 139°46'5 3.1
2015-Jan-31 08:33N 35°34' E 139°49'5 0.9
2015-Jan-31 03:15N 35°38' E 139°45'0 0.0
2015-Jan-31 02:17N 35°38' E 139°45'0 0.0
2015-Jan-31 01:10N 35°38' E 139°45'0 0.0
2015-Jan-30 23:33N 35°38' E 139°45'3 1.9
2015-Jan-30 22:13N 35°36' E 139°47'3 4.5
2015-Jan-30 21:33N 35°34' E 139°49'4 3.5
2015-Jan-30 20:33N 35°37' E 139°46'2 0.9
2015-Jan-30 18:29N 35°38' E 139°45'3 0.3
2015-Jan-30 10:25N 35°36' E 139°47'1 1.0
2015-Jan-30 09:33N 35°36' E 139°46'2 1.4
2015-Jan-30 08:11N 35°38' E 139°45'0 0.3
2015-Jan-30 07:32N 35°38' E 139°46'2 2.0
2015-Jan-30 06:33N 35°36' E 139°47'2 0.5
2015-Jan-30 02:19N 35°38' E 139°45'0 0.3
2015-Jan-30 01:30N 35°38' E 139°46'2 2.0
2015-Jan-30 00:30N 35°36' E 139°46'3 3.4
2015-Jan-29 23:32N 35°34' E 139°50'3 3.2
2015-Jan-29 22:32N 35°36' E 139°47'1 1.2
2015-Jan-29 21:33N 35°35' E 139°47'3 0.3
2015-Jan-29 10:27N 35°38' E 139°45'3 3.5
2015-Jan-29 09:30N 35°35' E 139°47'1 1.2
2015-Jan-29 08:33N 35°34' E 139°48'5 3.9
2015-Jan-29 07:22N 35°38' E 139°45'0 0.0
2015-Jan-28 21:30N 35°38' E 139°45'0 0.0
2015-Jan-28 19:29N 35°38' E 139°45'0 0.0
2015-Jan-28 15:21N 35°38' E 139°45'0 0.0
2015-Jan-27 22:21N 35°38' E 139°45'0 0.0
2015-Jan-27 21:20N 35°38' E 139°45'0 0.0
2015-Jan-27 20:30N 35°38' E 139°45'0 0.0
2015-Jan-27 19:32N 35°38' E 139°45'0 0.0
2015-Jan-27 18:32N 35°38' E 139°45'0 0.0
2015-Jan-27 17:15N 35°38' E 139°45'0 0.0
2015-Jan-27 16:07N 35°38' E 139°45'0 0.0
2015-Jan-27 15:20N 35°38' E 139°45'0 0.0
2015-Jan-27 12:25N 35°38' E 139°45'0 0.0
2015-Jan-27 10:26N 35°38' E 139°45'0 0.0
2015-Jan-27 05:33N 35°38' E 139°45'0 0.0
2015-Jan-26 22:17N 35°38' E 139°45'0 0.0
2015-Jan-26 21:32N 35°38' E 139°45'0 0.0
2015-Jan-26 20:29N 35°38' E 139°45'0 0.0
2015-Jan-26 19:19N 35°38' E 139°45'2 2.9
2015-Jan-26 18:33N 35°36' E 139°47'2 1.6
2015-Jan-26 17:08N 35°38' E 139°45'0 0.0
2015-Jan-26 16:33N 35°38' E 139°45'0 0.0
2015-Jan-26 15:31N 35°38' E 139°45'0 0.0
2015-Jan-26 14:04N 35°38' E 139°45'2 3.8
2015-Jan-26 13:29N 35°36' E 139°46'2 1.9
2015-Jan-26 12:33N 35°35' E 139°48'1 0.2
2015-Jan-26 09:28N 35°35' E 139°47'2 2.1
2015-Jan-26 08:33N 35°37' E 139°46'2 0.1
2015-Jan-25 13:18N 35°38' E 139°45'0 0.0
2015-Jan-25 12:06N 35°38' E 139°45'0 0.1
2015-Jan-25 09:22N 35°38' E 139°46'1 1.5
2015-Jan-25 08:30N 35°37' E 139°46'1 0.8
2015-Jan-25 07:13N 35°38' E 139°46'1 1.7
2015-Jan-25 06:33N 35°37' E 139°46'2 1.2
2015-Jan-25 05:17N 35°38' E 139°45'0 0.0
2015-Jan-25 04:29N 35°38' E 139°45'0 0.0
2015-Jan-25 01:29N 35°38' E 139°45'0 0.0
2015-Jan-25 00:13N 35°38' E 139°45'0 0.0
2015-Jan-24 23:21N 35°38' E 139°45'0 0.0
2015-Jan-24 22:20N 35°38' E 139°45'0 0.0
2015-Jan-24 19:21N 35°38' E 139°45'0 0.0
2015-Jan-24 16:28N 35°38' E 139°45'0 0.0
2015-Jan-24 15:20N 35°38' E 139°45'0 0.0
2015-Jan-24 12:07N 35°38' E 139°45'0 0.0
2015-Jan-24 10:13N 35°38' E 139°45'0 0.0
2015-Jan-24 09:27N 35°38' E 139°45'1 0.2
2015-Jan-24 05:33N 35°38' E 139°46'1 0.6
2015-Jan-24 04:22N 35°38' E 139°45'0 0.0
2015-Jan-24 03:16N 35°38' E 139°45'0 0.0
2015-Jan-24 02:28N 35°38' E 139°45'0 0.0
2015-Jan-24 01:07N 35°38' E 139°45'0 0.0
2015-Jan-23 23:29N 35°38' E 139°45'0 0.0
2015-Jan-23 22:30N 35°38' E 139°45'0 0.0
2015-Jan-23 20:30N 35°38' E 139°45'0 0.0
2015-Jan-23 19:22N 35°38' E 139°45'2 0.3
2015-Jan-23 11:33N 35°36' E 139°47'2 1.7
2015-Jan-23 10:05N 35°38' E 139°45'0 0.0
2015-Jan-23 08:13N 35°38' E 139°45'0 0.0
2015-Jan-23 03:07N 35°38' E 139°45'0 0.0
2015-Jan-23 02:20N 35°38' E 139°45'2 1.3
2015-Jan-23 00:28N 35°36' E 139°46'1 1.6
2015-Jan-22 23:33N 35°35' E 139°48'2 0.2
2015-Jan-22 10:33N 35°37' E 139°46'2 2.2
2015-Jan-22 09:32N 35°35' E 139°48'1 0.6
2015-Jan-22 08:33N 35°35' E 139°48'  

Dump ship's entire track history